sensor_id;sensor_type;location;lat;lon;timestamp;temperature;humidity
16388;DHT22;8303;53.446;9.988;2022-09-24T04:47:14;12.00;1.00
16388;DHT22;8303;53.446;9.988;2022-09-24T04:49:41;12.00;1.00
16388;DHT22;8303;53.446;9.988;2022-09-24T04:52:10;12.10;1.00
16388;DHT22;8303;53.446;9.988;2022-09-24T04:54:39;12.00;1.00
16388;DHT22;8303;53.446;9.988;2022-09-24T04:57:06;12.10;1.00
16388;DHT22;8303;53.446;9.988;2022-09-24T04:59:33;12.10;1.00
16388;DHT22;8303;53.446;9.988;2022-09-24T05:02:00;12.10;1.00
16388;DHT22;8303;53.446;9.988;2022-09-24T05:04:29;12.10;1.00
16388;DHT22;8303;53.446;9.988;2022-09-24T05:06:56;12.00;1.00
16388;DHT22;8303;53.446;9.988;2022-09-24T05:09:23;12.00;1.00
16388;DHT22;8303;53.446;9.988;2022-09-24T05:11:49;12.00;1.00
16388;DHT22;8303;53.446;9.988;2022-09-24T05:14:16;12.10;1.00
16388;DHT22;8303;53.446;9.988;2022-09-24T05:16:43;12.00;1.00
16388;DHT22;8303;53.446;9.988;2022-09-24T05:19:10;12.00;1.00
16388;DHT22;8303;53.446;9.988;2022-09-24T05:21:39;12.00;1.00
16388;DHT22;8303;53.446;9.988;2022-09-24T05:24:05;12.00;1.00
16388;DHT22;8303;53.446;9.988;2022-09-24T05:26:32;12.00;1.00
16388;DHT22;8303;53.446;9.988;2022-09-24T05:29:17;12.00;1.00
16388;DHT22;8303;53.446;9.988;2022-09-24T05:31:44;12.10;1.00
16388;DHT22;8303;53.446;9.988;2022-09-24T05:34:10;12.10;1.00
16388;DHT22;8303;53.446;9.988;2022-09-24T05:36:46;12.10;1.00
16388;DHT22;8303;53.446;9.988;2022-09-24T05:39:14;12.10;1.00
16388;DHT22;8303;53.446;9.988;2022-09-24T05:41:46;12.10;1.00
16388;DHT22;8303;53.446;9.988;2022-09-24T05:44:13;12.00;1.00
16388;DHT22;8303;53.446;9.988;2022-09-24T05:46:40;12.10;1.00
16388;DHT22;8303;53.446;9.988;2022-09-24T05:49:07;12.00;1.00
16388;DHT22;8303;53.446;9.988;2022-09-24T05:51:34;12.10;1.00
16388;DHT22;8303;53.446;9.988;2022-09-24T05:54:02;12.10;1.00
16388;DHT22;8303;53.446;9.988;2022-09-24T05:56:29;12.10;1.00
16388;DHT22;8303;53.446;9.988;2022-09-24T05:58:56;12.10;1.00
16388;DHT22;8303;53.446;9.988;2022-09-24T06:01:26;12.10;1.00
16388;DHT22;8303;53.446;9.988;2022-09-24T06:03:54;12.10;1.00
16388;DHT22;8303;53.446;9.988;2022-09-24T06:06:21;12.20;1.00
16388;DHT22;8303;53.446;9.988;2022-09-24T06:08:48;12.10;1.00
16388;DHT22;8303;53.446;9.988;2022-09-24T06:11:16;12.10;1.00
16388;DHT22;8303;53.446;9.988;2022-09-24T06:13:44;12.10;1.00
16388;DHT22;8303;53.446;9.988;2022-09-24T06:16:11;12.20;1.00
16388;DHT22;8303;53.446;9.988;2022-09-24T06:18:39;12.20;1.00
16388;DHT22;8303;53.446;9.988;2022-09-24T06:21:08;12.20;1.00
16388;DHT22;8303;53.446;9.988;2022-09-24T06:23:36;12.20;1.00
16388;DHT22;8303;53.446;9.988;2022-09-24T06:26:09;12.10;1.00
16388;DHT22;8303;53.446;9.988;2022-09-24T06:28:37;12.10;1.00
16388;DHT22;8303;53.446;9.988;2022-09-24T06:31:05;12.10;1.00
16388;DHT22;8303;53.446;9.988;2022-09-24T06:33:32;12.10;1.00
16388;DHT22;8303;53.446;9.988;2022-09-24T06:36:01;12.10;1.00
16388;DHT22;8303;53.446;9.988;2022-09-24T06:38:28;12.10;1.00
16388;DHT22;8303;53.446;9.988;2022-09-24T06:40:58;12.10;1.00
16388;DHT22;8303;53.446;9.988;2022-09-24T06:43:26;12.10;1.00
16388;DHT22;8303;53.446;9.988;2022-09-24T06:45:56;12.10;1.00
16388;DHT22;8303;53.446;9.988;2022-09-24T06:48:23;12.10;1.00
16388;DHT22;8303;53.446;9.988;2022-09-24T06:50:51;12.00;1.00
16388;DHT22;8303;53.446;9.988;2022-09-24T06:53:19;12.00;1.00
16388;DHT22;8303;53.446;9.988;2022-09-24T06:55:46;12.10;1.00
16388;DHT22;8303;53.446;9.988;2022-09-24T06:58:14;12.00;1.00
16388;DHT22;8303;53.446;9.988;2022-09-24T07:00:42;12.10;1.00
16388;DHT22;8303;53.446;9.988;2022-09-24T07:03:14;12.10;1.00
16388;DHT22;8303;53.446;9.988;2022-09-24T07:05:41;12.10;1.00
16388;DHT22;8303;53.446;9.988;2022-09-24T07:08:08;12.10;1.00
16388;DHT22;8303;53.446;9.988;2022-09-24T07:10:35;12.10;1.00
16388;DHT22;8303;53.446;9.988;2022-09-24T07:13:04;12.10;2.90
16388;DHT22;8303;53.446;9.988;2022-09-24T07:15:31;12.10;2.60
16388;DHT22;8303;53.446;9.988;2022-09-24T07:17:58;12.20;9.00
16388;DHT22;8303;53.446;9.988;2022-09-24T07:20:26;12.20;18.00
16388;DHT22;8303;53.446;9.988;2022-09-24T07:22:53;12.20;16.80
16388;DHT22;8303;53.446;9.988;2022-09-24T07:25:20;12.20;17.90
16388;DHT22;8303;53.446;9.988;2022-09-24T07:27:47;12.20;11.30
16388;DHT22;8303;53.446;9.988;2022-09-24T07:30:14;12.20;15.10
16388;DHT22;8303;53.446;9.988;2022-09-24T07:32:41;12.30;19.60
16388;DHT22;8303;53.446;9.988;2022-09-24T07:35:08;12.30;24.60
16388;DHT22;8303;53.446;9.988;2022-09-24T07:37:36;12.20;14.30
16388;DHT22;8303;53.446;9.988;2022-09-24T07:40:04;12.30;27.70
16388;DHT22;8303;53.446;9.988;2022-09-24T07:42:31;12.30;24.30
16388;DHT22;8303;53.446;9.988;2022-09-24T07:44:57;12.40;30.10
16388;DHT22;8303;53.446;9.988;2022-09-24T07:47:25;12.40;27.10
16388;DHT22;8303;53.446;9.988;2022-09-24T07:49:52;12.40;16.10
16388;DHT22;8303;53.446;9.988;2022-09-24T07:52:19;12.40;24.40
16388;DHT22;8303;53.446;9.988;2022-09-24T07:54:47;12.40;15.70
16388;DHT22;8303;53.446;9.988;2022-09-24T07:57:16;12.50;25.40
16388;DHT22;8303;53.446;9.988;2022-09-24T07:59:43;12.50;28.30
16388;DHT22;8303;53.446;9.988;2022-09-24T08:02:14;12.50;22.00
16388;DHT22;8303;53.446;9.988;2022-09-24T08:04:42;12.50;34.70
16388;DHT22;8303;53.446;9.988;2022-09-24T08:07:10;12.50;22.40
16388;DHT22;8303;53.446;9.988;2022-09-24T08:09:37;12.40;20.10
16388;DHT22;8303;53.446;9.988;2022-09-24T08:12:06;12.40;20.50
16388;DHT22;8303;53.446;9.988;2022-09-24T08:14:34;12.40;20.00
16388;DHT22;8303;53.446;9.988;2022-09-24T08:17:00;12.40;34.90
16388;DHT22;8303;53.446;9.988;2022-09-24T08:19:28;12.40;35.90
16388;DHT22;8303;53.446;9.988;2022-09-24T08:21:55;12.40;43.80
16388;DHT22;8303;53.446;9.988;2022-09-24T08:24:23;12.50;52.90
16388;DHT22;8303;53.446;9.988;2022-09-24T08:26:50;12.40;50.40
16388;DHT22;8303;53.446;9.988;2022-09-24T08:29:18;12.40;56.40
16388;DHT22;8303;53.446;9.988;2022-09-24T08:31:45;12.40;56.30
16388;DHT22;8303;53.446;9.988;2022-09-24T08:34:12;12.40;57.90
16388;DHT22;8303;53.446;9.988;2022-09-24T08:36:39;12.50;63.30
16388;DHT22;8303;53.446;9.988;2022-09-24T08:39:06;12.50;59.40
16388;DHT22;8303;53.446;9.988;2022-09-24T08:41:47;12.60;57.30
16388;DHT22;8303;53.446;9.988;2022-09-24T08:44:21;12.60;65.60
16388;DHT22;8303;53.446;9.988;2022-09-24T08:47:11;12.80;76.70
16388;DHT22;8303;53.446;9.988;2022-09-24T08:49:53;12.90;83.10
16388;DHT22;8303;53.446;9.988;2022-09-24T08:52:30;13.10;77.00
16388;DHT22;8303;53.446;9.988;2022-09-24T08:55:03;13.30;99.90
16388;DHT22;8303;53.446;9.988;2022-09-24T08:57:38;13.40;90.60
16388;DHT22;8303;53.446;9.988;2022-09-24T09:00:12;13.40;64.70
16388;DHT22;8303;53.446;9.988;2022-09-24T09:02:44;13.40;50.30
16388;DHT22;8303;53.446;9.988;2022-09-24T09:05:20;13.50;35.50
16388;DHT22;8303;53.446;9.988;2022-09-24T09:07:58;13.60;3.90
16388;DHT22;8303;53.446;9.988;2022-09-24T09:10:30;13.70;4.90
16388;DHT22;8303;53.446;9.988;2022-09-24T09:13:04;13.70;1.00
16388;DHT22;8303;53.446;9.988;2022-09-24T09:15:37;13.70;1.00
16388;DHT22;8303;53.446;9.988;2022-09-24T09:18:12;13.70;1.00
16388;DHT22;8303;53.446;9.988;2022-09-24T09:20:41;13.80;1.00
16388;DHT22;8303;53.446;9.988;2022-09-24T09:23:13;13.80;1.00
16388;DHT22;8303;53.446;9.988;2022-09-24T09:25:46;13.90;1.00
16388;DHT22;8303;53.446;9.988;2022-09-24T09:28:17;13.80;1.00
16388;DHT22;8303;53.446;9.988;2022-09-24T09:30:55;13.80;1.00
16388;DHT22;8303;53.446;9.988;2022-09-24T09:33:37;13.80;1.00
16388;DHT22;8303;53.446;9.988;2022-09-24T09:36:24;13.80;1.00
16388;DHT22;8303;53.446;9.988;2022-09-24T09:38:59;13.80;1.00
16388;DHT22;8303;53.446;9.988;2022-09-24T09:41:32;13.60;1.00
16388;DHT22;8303;53.446;9.988;2022-09-24T09:44:10;13.70;1.00
16388;DHT22;8303;53.446;9.988;2022-09-24T09:46:43;13.70;1.00
16388;DHT22;8303;53.446;9.988;2022-09-24T09:49:13;13.80;1.00
16388;DHT22;8303;53.446;9.988;2022-09-24T09:51:41;13.80;1.00
16388;DHT22;8303;53.446;9.988;2022-09-24T09:54:08;13.90;1.00
16388;DHT22;8303;53.446;9.988;2022-09-24T09:56:41;14.00;1.00
16388;DHT22;8303;53.446;9.988;2022-09-24T09:59:17;14.10;1.00
16388;DHT22;8303;53.446;9.988;2022-09-24T10:01:48;14.00;1.00
16388;DHT22;8303;53.446;9.988;2022-09-24T10:04:27;14.20;1.00
16388;DHT22;8303;53.446;9.988;2022-09-24T10:07:07;14.20;1.00
16388;DHT22;8303;53.446;9.988;2022-09-24T10:09:34;14.10;1.00
16388;DHT22;8303;53.446;9.988;2022-09-24T10:12:14;14.00;1.00
16388;DHT22;8303;53.446;9.988;2022-09-24T10:14:56;13.90;1.00
16388;DHT22;8303;53.446;9.988;2022-09-24T10:17:28;13.90;1.00
16388;DHT22;8303;53.446;9.988;2022-09-24T10:19:55;14.00;1.00
16388;DHT22;8303;53.446;9.988;2022-09-24T10:22:24;14.00;1.00
16388;DHT22;8303;53.446;9.988;2022-09-24T10:24:54;13.90;1.00
16388;DHT22;8303;53.446;9.988;2022-09-24T10:27:28;13.90;1.00
16388;DHT22;8303;53.446;9.988;2022-09-24T10:29:56;13.90;1.00
16388;DHT22;8303;53.446;9.988;2022-09-24T10:32:43;13.80;1.00
16388;DHT22;8303;53.446;9.988;2022-09-24T10:35:24;13.80;1.00
16388;DHT22;8303;53.446;9.988;2022-09-24T10:37:52;13.90;1.00
16388;DHT22;8303;53.446;9.988;2022-09-24T10:40:22;14.00;1.00
16388;DHT22;8303;53.446;9.988;2022-09-24T10:42:57;14.00;1.00
16388;DHT22;8303;53.446;9.988;2022-09-24T10:48:20;14.10;1.00
16388;DHT22;8303;53.446;9.988;2022-09-24T10:50:56;14.10;1.00
16388;DHT22;8303;53.446;9.988;2022-09-24T10:53:34;14.10;1.00
16388;DHT22;8303;53.446;9.988;2022-09-24T10:56:13;14.10;1.00
16388;DHT22;8303;53.446;9.988;2022-09-24T10:58:55;14.10;1.00
16388;DHT22;8303;53.446;9.988;2022-09-24T11:01:34;14.20;1.00
16388;DHT22;8303;53.446;9.988;2022-09-24T11:04:27;14.40;1.00
16388;DHT22;8303;53.446;9.988;2022-09-24T11:10:09;14.70;1.00
16388;DHT22;8303;53.446;9.988;2022-09-24T11:12:46;14.90;1.00
16388;DHT22;8303;53.446;9.988;2022-09-24T11:15:24;14.90;1.00
16388;DHT22;8303;53.446;9.988;2022-09-24T11:18:07;14.80;1.00
16388;DHT22;8303;53.446;9.988;2022-09-24T11:20:38;14.90;1.00
16388;DHT22;8303;53.446;9.988;2022-09-24T11:23:20;14.90;1.00
16388;DHT22;8303;53.446;9.988;2022-09-24T11:25:55;15.00;1.00
16388;DHT22;8303;53.446;9.988;2022-09-24T11:28:52;15.10;1.00
16388;DHT22;8303;53.446;9.988;2022-09-24T11:31:31;15.10;1.00
16388;DHT22;8303;53.446;9.988;2022-09-24T11:34:18;15.00;1.00
16388;DHT22;8303;53.446;9.988;2022-09-24T11:37:03;14.70;1.00
16388;DHT22;8303;53.446;9.988;2022-09-24T11:39:41;14.80;1.00
16388;DHT22;8303;53.446;9.988;2022-09-24T11:42:17;14.70;1.00
16388;DHT22;8303;53.446;9.988;2022-09-24T11:44:58;14.70;1.00
16388;DHT22;8303;53.446;9.988;2022-09-24T11:47:40;14.70;1.00
16388;DHT22;8303;53.446;9.988;2022-09-24T11:50:20;14.80;1.00
16388;DHT22;8303;53.446;9.988;2022-09-24T11:52:54;14.70;1.00
16388;DHT22;8303;53.446;9.988;2022-09-24T11:55:24;14.70;1.00
16388;DHT22;8303;53.446;9.988;2022-09-24T11:58:03;14.70;1.00
16388;DHT22;8303;53.446;9.988;2022-09-24T12:00:36;14.90;1.00
16388;DHT22;8303;53.446;9.988;2022-09-24T12:03:11;14.90;1.00
16388;DHT22;8303;53.446;9.988;2022-09-24T12:05:43;15.00;1.00
16388;DHT22;8303;53.446;9.988;2022-09-24T12:08:18;15.00;1.00
16388;DHT22;8303;53.446;9.988;2022-09-24T12:10:48;15.10;1.00
16388;DHT22;8303;53.446;9.988;2022-09-24T12:13:19;15.20;1.00
16388;DHT22;8303;53.446;9.988;2022-09-24T12:15:51;15.20;1.00
16388;DHT22;8303;53.446;9.988;2022-09-24T12:18:24;15.10;1.00
16388;DHT22;8303;53.446;9.988;2022-09-24T12:20:55;15.10;1.00
16388;DHT22;8303;53.446;9.988;2022-09-24T12:23:29;15.20;1.00
16388;DHT22;8303;53.446;9.988;2022-09-24T12:26:01;15.10;1.00
16388;DHT22;8303;53.446;9.988;2022-09-24T12:28:36;15.20;1.00
16388;DHT22;8303;53.446;9.988;2022-09-24T12:31:26;15.50;1.00
16388;DHT22;8303;53.446;9.988;2022-09-24T12:34:16;15.70;1.00
16388;DHT22;8303;53.446;9.988;2022-09-24T12:36:52;15.70;1.00
16388;DHT22;8303;53.446;9.988;2022-09-24T12:39:24;15.90;1.00
16388;DHT22;8303;53.446;9.988;2022-09-24T12:41:57;16.00;1.00
16388;DHT22;8303;53.446;9.988;2022-09-24T12:44:31;15.80;1.00
16388;DHT22;8303;53.446;9.988;2022-09-24T12:47:01;15.90;1.00
16388;DHT22;8303;53.446;9.988;2022-09-24T12:49:31;15.80;1.00
16388;DHT22;8303;53.446;9.988;2022-09-24T12:52:02;15.60;1.00
16388;DHT22;8303;53.446;9.988;2022-09-24T12:54:33;15.50;1.00
16388;DHT22;8303;53.446;9.988;2022-09-24T12:57:05;15.60;1.00
16388;DHT22;8303;53.446;9.988;2022-09-24T12:59:33;15.60;1.00
16388;DHT22;8303;53.446;9.988;2022-09-24T13:02:12;15.60;1.00
16388;DHT22;8303;53.446;9.988;2022-09-24T13:04:43;15.40;1.00
16388;DHT22;8303;53.446;9.988;2022-09-24T13:07:38;15.40;1.00
16388;DHT22;8303;53.446;9.988;2022-09-24T13:10:24;15.30;1.00
16388;DHT22;8303;53.446;9.988;2022-09-24T13:12:54;15.30;1.00
16388;DHT22;8303;53.446;9.988;2022-09-24T13:15:33;15.40;1.00
16388;DHT22;8303;53.446;9.988;2022-09-24T13:18:05;15.30;1.00
16388;DHT22;8303;53.446;9.988;2022-09-24T13:20:42;15.40;1.00
16388;DHT22;8303;53.446;9.988;2022-09-24T13:23:29;15.40;1.00
16388;DHT22;8303;53.446;9.988;2022-09-24T13:25:59;15.50;1.00
16388;DHT22;8303;53.446;9.988;2022-09-24T13:28:31;15.60;1.00
16388;DHT22;8303;53.446;9.988;2022-09-24T13:31:07;15.60;1.00
16388;DHT22;8303;53.446;9.988;2022-09-24T13:33:40;15.50;1.00
16388;DHT22;8303;53.446;9.988;2022-09-24T13:36:12;15.60;1.00
16388;DHT22;8303;53.446;9.988;2022-09-24T13:38:48;15.50;1.00
16388;DHT22;8303;53.446;9.988;2022-09-24T13:41:28;15.50;1.00
16388;DHT22;8303;53.446;9.988;2022-09-24T13:43:59;15.40;1.00
16388;DHT22;8303;53.446;9.988;2022-09-24T13:46:29;15.20;1.00
16388;DHT22;8303;53.446;9.988;2022-09-24T13:49:00;15.20;1.00
16388;DHT22;8303;53.446;9.988;2022-09-24T13:51:33;15.10;1.00
16388;DHT22;8303;53.446;9.988;2022-09-24T13:54:05;15.00;1.00
16388;DHT22;8303;53.446;9.988;2022-09-24T13:56:38;15.00;1.00
16388;DHT22;8303;53.446;9.988;2022-09-24T13:59:09;14.90;1.00
16388;DHT22;8303;53.446;9.988;2022-09-24T14:01:39;14.90;1.00
16388;DHT22;8303;53.446;9.988;2022-09-24T14:04:15;14.90;1.00
16388;DHT22;8303;53.446;9.988;2022-09-24T14:06:44;14.90;1.00
16388;DHT22;8303;53.446;9.988;2022-09-24T14:09:25;14.90;1.00
16388;DHT22;8303;53.446;9.988;2022-09-24T14:11:55;14.90;1.00
16388;DHT22;8303;53.446;9.988;2022-09-24T14:14:24;14.90;1.00
16388;DHT22;8303;53.446;9.988;2022-09-24T14:16:52;14.80;1.00
16388;DHT22;8303;53.446;9.988;2022-09-24T14:19:21;14.80;1.00
16388;DHT22;8303;53.446;9.988;2022-09-24T14:21:50;14.90;1.00
16388;DHT22;8303;53.446;9.988;2022-09-24T14:24:20;14.90;1.00
16388;DHT22;8303;53.446;9.988;2022-09-24T14:26:51;14.80;1.00
16388;DHT22;8303;53.446;9.988;2022-09-24T14:29:25;14.80;1.00
16388;DHT22;8303;53.446;9.988;2022-09-24T14:31:57;14.80;1.00
16388;DHT22;8303;53.446;9.988;2022-09-24T14:34:33;14.90;1.00
16388;DHT22;8303;53.446;9.988;2022-09-24T14:37:07;14.90;1.00
16388;DHT22;8303;53.446;9.988;2022-09-24T14:39:38;14.90;1.00
16388;DHT22;8303;53.446;9.988;2022-09-24T14:42:09;14.90;1.00
16388;DHT22;8303;53.446;9.988;2022-09-24T14:44:40;15.00;1.00
16388;DHT22;8303;53.446;9.988;2022-09-24T14:47:24;15.00;1.00
16388;DHT22;8303;53.446;9.988;2022-09-24T14:49:52;15.10;1.00
16388;DHT22;8303;53.446;9.988;2022-09-24T14:52:27;15.10;1.00
16388;DHT22;8303;53.446;9.988;2022-09-24T14:55:02;15.20;1.00
16388;DHT22;8303;53.446;9.988;2022-09-24T14:57:35;15.20;1.00
16388;DHT22;8303;53.446;9.988;2022-09-24T15:00:18;15.20;1.00
16388;DHT22;8303;53.446;9.988;2022-09-24T15:02:49;15.20;1.00
16388;DHT22;8303;53.446;9.988;2022-09-24T15:05:22;15.20;1.00
16388;DHT22;8303;53.446;9.988;2022-09-24T15:07:50;15.20;1.00
16388;DHT22;8303;53.446;9.988;2022-09-24T15:10:19;15.30;1.00
16388;DHT22;8303;53.446;9.988;2022-09-24T15:12:49;15.30;1.00
16388;DHT22;8303;53.446;9.988;2022-09-24T15:15:28;15.20;1.00
16388;DHT22;8303;53.446;9.988;2022-09-24T15:17:56;15.40;1.00
16388;DHT22;8303;53.446;9.988;2022-09-24T15:20:23;15.30;1.00
16388;DHT22;8303;53.446;9.988;2022-09-24T15:22:50;15.20;1.00
16388;DHT22;8303;53.446;9.988;2022-09-24T15:25:17;15.00;1.00
16388;DHT22;8303;53.446;9.988;2022-09-24T15:27:44;15.00;1.00
16388;DHT22;8303;53.446;9.988;2022-09-24T15:30:16;15.00;1.00
16388;DHT22;8303;53.446;9.988;2022-09-24T15:32:47;15.00;1.00
16388;DHT22;8303;53.446;9.988;2022-09-24T15:35:16;15.00;1.00
16388;DHT22;8303;53.446;9.988;2022-09-24T15:37:43;14.90;1.00
16388;DHT22;8303;53.446;9.988;2022-09-24T15:40:19;15.00;1.00
16388;DHT22;8303;53.446;9.988;2022-09-24T15:42:47;14.90;1.00
16388;DHT22;8303;53.446;9.988;2022-09-24T15:45:16;14.90;1.00
16388;DHT22;8303;53.446;9.988;2022-09-24T15:47:43;14.90;1.00
16388;DHT22;8303;53.446;9.988;2022-09-24T15:50:11;14.80;1.00
16388;DHT22;8303;53.446;9.988;2022-09-24T15:52:43;14.80;1.00
16388;DHT22;8303;53.446;9.988;2022-09-24T15:55:14;14.80;1.00
16388;DHT22;8303;53.446;9.988;2022-09-24T15:57:42;14.70;1.00
16388;DHT22;8303;53.446;9.988;2022-09-24T16:00:13;14.70;1.00
16388;DHT22;8303;53.446;9.988;2022-09-24T16:02:42;14.60;1.00
16388;DHT22;8303;53.446;9.988;2022-09-24T16:05:13;14.60;1.00
16388;DHT22;8303;53.446;9.988;2022-09-24T16:07:40;14.50;1.00
16388;DHT22;8303;53.446;9.988;2022-09-24T16:10:09;14.50;1.00
16388;DHT22;8303;53.446;9.988;2022-09-24T16:12:36;14.40;1.00
16388;DHT22;8303;53.446;9.988;2022-09-24T16:15:04;14.40;1.00
16388;DHT22;8303;53.446;9.988;2022-09-24T16:17:31;14.30;1.00
16388;DHT22;8303;53.446;9.988;2022-09-24T16:19:58;14.30;1.00
16388;DHT22;8303;53.446;9.988;2022-09-24T16:22:26;14.30;1.00
16388;DHT22;8303;53.446;9.988;2022-09-24T16:24:54;14.30;1.00
16388;DHT22;8303;53.446;9.988;2022-09-24T16:27:21;14.20;1.00
16388;DHT22;8303;53.446;9.988;2022-09-24T16:29:48;14.20;1.00
16388;DHT22;8303;53.446;9.988;2022-09-24T16:32:15;14.30;19.20
16388;DHT22;8303;53.446;9.988;2022-09-24T16:34:42;14.20;1.40
16388;DHT22;8303;53.446;9.988;2022-09-24T16:37:09;14.20;12.90
16388;DHT22;8303;53.446;9.988;2022-09-24T16:39:39;14.20;17.20
16388;DHT22;8303;53.446;9.988;2022-09-24T16:42:06;14.00;2.50
16388;DHT22;8303;53.446;9.988;2022-09-24T16:44:33;14.00;25.70
16388;DHT22;8303;53.446;9.988;2022-09-24T16:47:00;14.00;25.70
16388;DHT22;8303;53.446;9.988;2022-09-24T16:49:27;13.90;34.60
16388;DHT22;8303;53.446;9.988;2022-09-24T16:51:54;13.90;42.10
16388;DHT22;8303;53.446;9.988;2022-09-24T16:54:21;13.90;52.50
16388;DHT22;8303;53.446;9.988;2022-09-24T16:56:50;13.90;55.80
16388;DHT22;8303;53.446;9.988;2022-09-24T16:59:17;13.90;68.00
16388;DHT22;8303;53.446;9.988;2022-09-24T17:01:45;13.80;74.30
16388;DHT22;8303;53.446;9.988;2022-09-24T17:04:12;13.80;86.20
16388;DHT22;8303;53.446;9.988;2022-09-24T17:06:39;13.70;88.80
16388;DHT22;8303;53.446;9.988;2022-09-24T17:09:09;13.80;94.10
16388;DHT22;8303;53.446;9.988;2022-09-24T17:11:55;13.70;97.20
16388;DHT22;8303;53.446;9.988;2022-09-24T17:14:23;13.70;99.90
16388;DHT22;8303;53.446;9.988;2022-09-24T17:16:50;13.60;99.90
16388;DHT22;8303;53.446;9.988;2022-09-24T17:19:17;13.60;99.90
16388;DHT22;8303;53.446;9.988;2022-09-24T17:21:44;13.70;99.90
16388;DHT22;8303;53.446;9.988;2022-09-24T17:24:14;13.60;99.90
16388;DHT22;8303;53.446;9.988;2022-09-24T17:26:41;13.60;99.90
16388;DHT22;8303;53.446;9.988;2022-09-24T17:29:11;13.60;99.90
16388;DHT22;8303;53.446;9.988;2022-09-24T17:31:38;13.60;99.90
16388;DHT22;8303;53.446;9.988;2022-09-24T17:34:06;13.50;99.90
16388;DHT22;8303;53.446;9.988;2022-09-24T17:36:35;13.50;99.90
16388;DHT22;8303;53.446;9.988;2022-09-24T17:39:03;13.60;99.90
16388;DHT22;8303;53.446;9.988;2022-09-24T17:41:31;13.50;99.90
16388;DHT22;8303;53.446;9.988;2022-09-24T17:43:58;13.60;99.90
16388;DHT22;8303;53.446;9.988;2022-09-24T17:46:29;13.50;99.90
16388;DHT22;8303;53.446;9.988;2022-09-24T17:48:58;13.40;99.90
16388;DHT22;8303;53.446;9.988;2022-09-24T17:51:27;13.50;99.90
16388;DHT22;8303;53.446;9.988;2022-09-24T17:53:54;13.40;99.90
16388;DHT22;8303;53.446;9.988;2022-09-24T17:56:23;13.40;99.90
16388;DHT22;8303;53.446;9.988;2022-09-24T17:58:52;13.30;99.90
16388;DHT22;8303;53.446;9.988;2022-09-24T18:01:21;13.30;99.90
16388;DHT22;8303;53.446;9.988;2022-09-24T18:03:53;13.30;99.90
16388;DHT22;8303;53.446;9.988;2022-09-24T18:06:21;13.30;99.90
16388;DHT22;8303;53.446;9.988;2022-09-24T18:08:49;13.20;99.90
16388;DHT22;8303;53.446;9.988;2022-09-24T18:11:18;13.20;99.90
16388;DHT22;8303;53.446;9.988;2022-09-24T18:13:49;13.20;99.90
16388;DHT22;8303;53.446;9.988;2022-09-24T18:16:18;13.20;99.90
16388;DHT22;8303;53.446;9.988;2022-09-24T18:18:45;13.20;99.90
16388;DHT22;8303;53.446;9.988;2022-09-24T18:21:17;13.20;99.90
16388;DHT22;8303;53.446;9.988;2022-09-24T18:23:44;13.00;99.90
16388;DHT22;8303;53.446;9.988;2022-09-24T18:26:14;13.10;99.90
16388;DHT22;8303;53.446;9.988;2022-09-24T18:28:46;13.00;99.90
16388;DHT22;8303;53.446;9.988;2022-09-24T18:31:14;13.10;99.90
16388;DHT22;8303;53.446;9.988;2022-09-24T18:33:42;13.10;99.90
16388;DHT22;8303;53.446;9.988;2022-09-24T18:36:11;13.10;99.90
16388;DHT22;8303;53.446;9.988;2022-09-24T18:38:40;13.20;99.90
16388;DHT22;8303;53.446;9.988;2022-09-24T18:41:10;13.20;99.90
16388;DHT22;8303;53.446;9.988;2022-09-24T18:43:37;13.20;99.90
16388;DHT22;8303;53.446;9.988;2022-09-24T18:46:06;13.10;99.90
16388;DHT22;8303;53.446;9.988;2022-09-24T18:48:33;13.40;99.90
16388;DHT22;8303;53.446;9.988;2022-09-24T18:51:01;13.40;99.90
16388;DHT22;8303;53.446;9.988;2022-09-24T18:53:28;13.40;99.90
16388;DHT22;8303;53.446;9.988;2022-09-24T18:56:01;13.40;99.90
16388;DHT22;8303;53.446;9.988;2022-09-24T18:58:28;13.40;99.90
16388;DHT22;8303;53.446;9.988;2022-09-24T19:00:57;13.30;99.90
16388;DHT22;8303;53.446;9.988;2022-09-24T19:03:25;13.30;99.90
16388;DHT22;8303;53.446;9.988;2022-09-24T19:05:53;13.30;99.90
16388;DHT22;8303;53.446;9.988;2022-09-24T19:08:22;13.30;99.90
16388;DHT22;8303;53.446;9.988;2022-09-24T19:10:49;13.30;99.90
16388;DHT22;8303;53.446;9.988;2022-09-24T19:13:18;13.30;99.90
16388;DHT22;8303;53.446;9.988;2022-09-24T19:15:45;13.30;99.90
16388;DHT22;8303;53.446;9.988;2022-09-24T19:18:14;13.30;99.90
16388;DHT22;8303;53.446;9.988;2022-09-24T19:20:44;13.30;99.90
16388;DHT22;8303;53.446;9.988;2022-09-24T19:23:13;13.30;99.90
16388;DHT22;8303;53.446;9.988;2022-09-24T19:25:42;13.30;99.90
16388;DHT22;8303;53.446;9.988;2022-09-24T19:28:11;13.30;99.90
16388;DHT22;8303;53.446;9.988;2022-09-24T19:30:41;13.30;99.90
16388;DHT22;8303;53.446;9.988;2022-09-24T19:33:09;13.30;99.90
16388;DHT22;8303;53.446;9.988;2022-09-24T19:35:38;13.30;99.90
16388;DHT22;8303;53.446;9.988;2022-09-24T19:38:05;13.30;99.90
16388;DHT22;8303;53.446;9.988;2022-09-24T19:40:32;13.30;99.90
16388;DHT22;8303;53.446;9.988;2022-09-24T19:42:59;13.30;99.90
16388;DHT22;8303;53.446;9.988;2022-09-24T19:45:27;13.30;99.90
16388;DHT22;8303;53.446;9.988;2022-09-24T19:47:55;13.30;99.90
16388;DHT22;8303;53.446;9.988;2022-09-24T19:50:23;13.20;99.90
16388;DHT22;8303;53.446;9.988;2022-09-24T19:52:50;13.30;99.90
16388;DHT22;8303;53.446;9.988;2022-09-24T19:55:20;13.20;99.90
16388;DHT22;8303;53.446;9.988;2022-09-24T19:57:48;13.20;99.90
16388;DHT22;8303;53.446;9.988;2022-09-24T20:00:15;13.20;99.90
16388;DHT22;8303;53.446;9.988;2022-09-24T20:02:42;13.10;99.90
16388;DHT22;8303;53.446;9.988;2022-09-24T20:05:10;13.10;99.90
16388;DHT22;8303;53.446;9.988;2022-09-24T20:07:37;13.10;99.90
16388;DHT22;8303;53.446;9.988;2022-09-24T20:10:07;13.10;99.90
16388;DHT22;8303;53.446;9.988;2022-09-24T20:12:34;13.10;99.90
16388;DHT22;8303;53.446;9.988;2022-09-24T20:15:02;13.00;99.90
16388;DHT22;8303;53.446;9.988;2022-09-24T20:17:29;13.10;99.90
16388;DHT22;8303;53.446;9.988;2022-09-24T20:19:56;13.10;99.90
16388;DHT22;8303;53.446;9.988;2022-09-24T20:22:26;13.00;99.90
16388;DHT22;8303;53.446;9.988;2022-09-24T20:24:53;13.00;99.90
16388;DHT22;8303;53.446;9.988;2022-09-24T20:27:20;13.00;99.90
